Time;durP1;ratioP1;P1;durP2;ratioP2;P2;SDS_P1;SDS_P2;PMS_P1;PMS_P2;Temp;Humidity;BMP_temperature;BMP_pressure;BME280_temperature;BME280_humidity;BME280_pressure;Samples;Min_cycle;Max_cycle;Signal;HPM_P1;HPM_P2
2023/04/05 00:01:31;;;;;;;7.80;4.53;;;3.00;99.90;;;;;;5072009;28;20475;-83
2023/04/05 00:03:58;;;;;;;7.22;4.55;;;3.70;99.90;;;;;;5071758;28;20044;-85
2023/04/05 00:06:25;;;;;;;8.55;5.40;;;3.20;99.90;;;;;;5072683;28;20174;-82
2023/04/05 00:08:56;;;;;;;5.78;4.78;;;2.90;99.90;;;;;;5072008;28;20055;-82
2023/04/05 00:11:22;;;;;;;9.00;6.28;;;2.80;99.90;;;;;;5073052;28;20048;-84
2023/04/05 00:13:48;;;;;;;6.20;4.50;;;2.90;99.90;;;;;;5072492;28;20055;-83
2023/04/05 00:16:15;;;;;;;8.35;5.07;;;2.80;99.90;;;;;;5071383;28;20056;-83
2023/04/05 00:18:48;;;;;;;8.43;5.70;;;2.80;99.90;;;;;;5071380;28;20055;-86
2023/04/05 00:21:21;;;;;;;7.30;4.78;;;2.90;99.90;;;;;;5071297;28;20106;-85
2023/04/05 00:23:50;;;;;;;6.32;5.35;;;3.00;99.90;;;;;;5072100;28;20040;-87
2023/04/05 00:26:16;;;;;;;5.68;4.47;;;3.80;99.90;;;;;;5072495;28;20101;-81
2023/04/05 00:28:42;;;;;;;5.68;4.68;;;3.20;99.90;;;;;;5071788;28;20052;-80
2023/04/05 00:31:07;;;;;;;7.70;5.45;;;2.80;99.90;;;;;;5070988;28;20091;-83
2023/04/05 00:33:33;;;;;;;7.78;5.22;;;2.70;99.90;;;;;;5088266;28;20044;-81
2023/04/05 00:36:13;;;;;;;8.18;5.05;;;2.70;99.90;;;;;;5088115;28;20391;-80
2023/04/05 00:38:40;;;;;;;7.20;4.88;;;2.70;99.90;;;;;;5071543;28;20190;-81
2023/04/05 00:41:06;;;;;;;7.18;5.07;;;2.80;99.90;;;;;;5070634;28;20056;-82
2023/04/05 00:43:31;;;;;;;11.82;5.75;;;2.30;99.90;;;;;;5072418;28;20073;-85
2023/04/05 00:45:57;;;;;;;7.22;5.35;;;2.60;99.90;;;;;;5071109;28;20428;-85
2023/04/05 00:48:23;;;;;;;8.77;5.93;;;2.20;99.90;;;;;;5088181;28;20044;-83
2023/04/05 00:50:51;;;;;;;6.10;4.82;;;2.30;99.90;;;;;;5071478;28;20120;-84
2023/04/05 00:53:18;;;;;;;8.55;5.30;;;2.20;99.90;;;;;;5072294;28;20497;-81
2023/04/05 00:55:46;;;;;;;9.05;5.63;;;2.30;99.90;;;;;;5076452;28;20045;-81
2023/04/05 00:58:13;;;;;;;9.07;6.10;;;2.20;99.90;;;;;;5074494;28;20103;-82
2023/04/05 01:00:39;;;;;;;9.07;5.82;;;2.20;99.90;;;;;;5076317;28;20040;-82
2023/04/05 01:03:06;;;;;;;10.32;5.85;;;2.20;99.90;;;;;;5075226;28;20086;-83
2023/04/05 01:05:39;;;;;;;8.07;5.90;;;2.70;99.90;;;;;;5074951;28;20076;-79
2023/04/05 01:08:27;;;;;;;7.90;5.93;;;2.10;99.90;;;;;;5075360;28;20088;-83
2023/04/05 01:11:02;;;;;;;8.27;5.53;;;2.30;99.90;;;;;;5075757;28;20047;-83
2023/04/05 01:13:31;;;;;;;11.10;5.72;;;2.10;99.90;;;;;;5076041;28;20060;-82
2023/04/05 01:15:57;;;;;;;7.70;5.78;;;2.20;99.90;;;;;;5075883;28;20055;-83
2023/04/05 01:18:24;;;;;;;7.32;5.68;;;2.50;99.90;;;;;;5075504;28;20475;-82
2023/04/05 01:21:19;;;;;;;7.45;5.95;;;2.00;99.90;;;;;;5074324;28;20052;-82
2023/04/05 01:23:57;;;;;;;8.23;5.50;;;1.90;99.90;;;;;;5074539;28;20055;-80
2023/04/05 01:26:44;;;;;;;7.88;5.95;;;1.90;99.90;;;;;;5075005;28;20098;-84
2023/04/05 01:29:46;;;;;;;8.25;5.80;;;1.80;99.90;;;;;;5075382;28;20053;-83
2023/04/05 01:32:37;;;;;;;9.48;6.90;;;1.80;99.90;;;;;;5076021;28;20053;-84
2023/04/05 01:35:16;;;;;;;11.23;6.28;;;1.80;99.90;;;;;;5074561;28;20128;-86
2023/04/05 01:37:47;;;;;;;7.78;6.50;;;1.80;99.90;;;;;;5074903;28;20440;-83
2023/04/05 01:40:13;;;;;;;9.32;6.53;;;1.70;99.90;;;;;;5095928;28;20063;-77
2023/04/05 01:42:39;;;;;;;10.23;6.38;;;1.70;99.90;;;;;;5097310;28;20048;-77
2023/04/05 01:45:05;;;;;;;7.85;5.82;;;1.80;99.90;;;;;;5098523;28;20060;-77
2023/04/05 01:47:31;;;;;;;8.48;6.68;;;1.80;99.90;;;;;;5096704;28;20040;-82
2023/04/05 01:49:57;;;;;;;8.90;6.45;;;2.10;99.90;;;;;;5075920;28;20362;-82
2023/04/05 01:52:22;;;;;;;9.00;7.07;;;2.00;99.90;;;;;;5076176;28;20040;-83
2023/04/05 01:54:48;;;;;;;11.05;6.55;;;1.80;99.90;;;;;;5075719;28;20059;-83
2023/04/05 01:57:14;;;;;;;8.60;5.90;;;0.50;99.90;;;;;;5074351;28;20051;-82
2023/04/05 01:59:39;;;;;;;8.50;6.50;;;1.70;99.90;;;;;;5075455;28;20056;-81
2023/04/05 02:02:05;;;;;;;9.65;6.97;;;2.20;99.90;;;;;;5075066;28;20049;-82
2023/04/05 02:04:31;;;;;;;11.27;8.20;;;1.70;99.90;;;;;;5074953;28;20048;-84
2023/04/05 02:06:56;;;;;;;10.45;8.15;;;1.70;99.90;;;;;;5074637;28;20047;-84
2023/04/05 02:09:22;;;;;;;11.82;6.93;;;1.90;99.90;;;;;;5074779;28;20049;-83
2023/04/05 02:11:48;;;;;;;8.63;6.50;;;1.70;99.90;;;;;;5090374;28;20057;-83
2023/04/05 02:14:13;;;;;;;9.00;7.28;;;3.00;99.90;;;;;;5074845;28;20045;-80
2023/04/05 02:16:39;;;;;;;8.57;6.70;;;2.30;99.90;;;;;;5074693;28;20375;-85
2023/04/05 02:19:05;;;;;;;9.48;6.45;;;1.70;99.90;;;;;;5090097;28;20508;-81
2023/04/05 02:21:31;;;;;;;10.10;6.80;;;2.00;99.90;;;;;;5074618;28;20110;-83
2023/04/05 02:23:57;;;;;;;9.90;7.15;;;1.70;99.90;;;;;;5073769;28;20044;-83
2023/04/05 02:26:22;;;;;;;10.50;6.80;;;1.60;99.90;;;;;;5074458;28;20407;-80
2023/04/05 02:28:48;;;;;;;7.90;7.05;;;2.30;99.90;;;;;;5074182;28;20086;-85
2023/04/05 02:31:14;;;;;;;8.98;6.45;;;1.60;99.90;;;;;;5074436;28;20048;-84
2023/04/05 02:33:40;;;;;;;10.02;7.15;;;1.60;99.90;;;;;;5074713;28;20539;-82
2023/04/05 02:36:12;;;;;;;10.10;7.53;;;2.00;99.90;;;;;;5074605;28;20045;-83
2023/04/05 02:38:38;;;;;;;10.70;6.75;;;1.60;99.90;;;;;;5074113;28;20052;-83
2023/04/05 02:41:06;;;;;;;10.38;7.50;;;1.50;99.90;;;;;;5073804;28;20563;-81
2023/04/05 02:43:34;;;;;;;7.28;6.47;;;1.40;99.90;;;;;;5073875;28;20471;-79
2023/04/05 02:45:59;;;;;;;10.80;7.15;;;1.40;99.90;;;;;;5074170;28;20503;-84
2023/04/05 02:48:25;;;;;;;10.68;8.20;;;1.30;99.90;;;;;;5074132;28;20123;-83
2023/04/05 02:50:51;;;;;;;9.40;6.88;;;2.40;99.90;;;;;;5073927;28;20048;-83
2023/04/05 02:53:17;;;;;;;10.70;7.40;;;1.30;99.90;;;;;;5073003;28;20128;-85
2023/04/05 02:55:52;;;;;;;12.40;8.82;;;1.40;99.90;;;;;;5073864;28;20049;-85
2023/04/05 02:58:17;;;;;;;12.70;8.07;;;1.40;99.90;;;;;;5073226;28;20055;-85
2023/04/05 03:00:50;;;;;;;12.50;8.48;;;1.40;99.90;;;;;;5073147;28;20044;-85
2023/04/05 03:03:17;;;;;;;13.38;7.68;;;1.30;99.90;;;;;;5073994;28;20101;-85
2023/04/05 03:05:43;;;;;;;13.45;8.60;;;1.30;99.90;;;;;;5073567;28;20040;-83
2023/04/05 03:08:17;;;;;;;12.20;8.40;;;1.10;99.90;;;;;;5073697;28;20036;-83
2023/04/05 03:10:45;;;;;;;12.27;8.65;;;1.10;99.90;;;;;;5072735;28;20544;-84
2023/04/05 03:13:12;;;;;;;10.63;7.90;;;1.40;99.90;;;;;;5074122;28;20052;-86
2023/04/05 03:15:38;;;;;;;9.13;7.72;;;1.00;99.90;;;;;;5073719;28;20056;-86
2023/04/05 03:18:04;;;;;;;8.65;6.75;;;1.20;99.90;;;;;;5072117;28;20055;-81
2023/04/05 03:20:29;;;;;;;13.27;8.27;;;1.00;99.90;;;;;;5072783;28;20350;-83
2023/04/05 03:22:55;;;;;;;11.38;7.78;;;1.40;99.90;;;;;;5073667;28;20045;-83
2023/04/05 03:25:21;;;;;;;10.63;8.13;;;1.10;99.90;;;;;;5073437;28;20048;-82
2023/04/05 03:27:46;;;;;;;12.98;9.10;;;1.00;99.90;;;;;;5073874;28;20037;-86
2023/04/05 03:30:12;;;;;;;10.73;8.85;;;1.00;99.90;;;;;;5072474;28;20041;-84
2023/04/05 03:32:38;;;;;;;13.15;9.70;;;1.00;99.90;;;;;;5072087;28;20060;-84
2023/04/05 03:35:04;;;;;;;12.95;8.88;;;1.00;99.90;;;;;;5073133;28;20055;-81
2023/04/05 03:37:30;;;;;;;12.23;9.00;;;1.00;99.90;;;;;;5073188;28;20128;-84
2023/04/05 03:39:56;;;;;;;14.02;9.80;;;1.50;99.90;;;;;;5072740;28;20083;-84
2023/04/05 03:42:21;;;;;;;11.73;9.60;;;2.30;99.90;;;;;;5073669;28;20052;-79
2023/04/05 03:44:51;;;;;;;14.45;10.52;;;1.70;99.90;;;;;;5072773;28;20049;-87
2023/04/05 03:47:17;;;;;;;13.20;9.35;;;0.90;99.90;;;;;;5055562;28;20044;-85
2023/04/05 03:49:42;;;;;;;12.85;9.75;;;0.90;99.90;;;;;;5072460;28;20099;-86
2023/04/05 03:52:08;;;;;;;17.33;10.20;;;0.90;99.90;;;;;;5072758;28;20051;-87
2023/04/05 03:54:34;;;;;;;13.38;10.25;;;1.70;99.90;;;;;;5072270;28;20115;-84
2023/04/05 03:57:01;;;;;;;9.93;8.55;;;1.20;99.90;;;;;;5072495;28;20132;-83
2023/04/05 03:59:27;;;;;;;13.10;9.75;;;0.80;99.90;;;;;;5072771;28;20127;-85
2023/04/05 04:01:52;;;;;;;14.20;10.60;;;0.90;99.90;;;;;;5088586;28;20130;-86
2023/04/05 04:04:18;;;;;;;12.65;8.98;;;0.90;99.90;;;;;;5072481;28;20049;-85
2023/04/05 04:06:44;;;;;;;14.45;10.90;;;0.90;99.90;;;;;;5072545;28;20175;-82
2023/04/05 04:09:10;;;;;;;16.42;10.38;;;1.00;99.90;;;;;;5088147;28;20109;-85
2023/04/05 04:11:35;;;;;;;16.08;10.35;;;1.00;99.90;;;;;;5073035;28;20049;-86
2023/04/05 04:14:01;;;;;;;11.88;9.73;;;1.10;99.90;;;;;;5088238;28;20520;-87
2023/04/05 04:16:27;;;;;;;13.98;10.38;;;1.20;99.90;;;;;;5072488;28;20045;-84
2023/04/05 04:18:53;;;;;;;15.10;10.52;;;1.20;99.90;;;;;;5087974;28;20044;-86
2023/04/05 04:21:23;;;;;;;15.02;10.77;;;1.20;99.90;;;;;;5072490;28;20070;-82
2023/04/05 04:23:54;;;;;;;14.07;10.82;;;1.80;99.90;;;;;;5071303;28;20502;-83
2023/04/05 04:26:27;;;;;;;13.27;10.95;;;1.20;99.90;;;;;;5072658;28;20041;-85
2023/04/05 04:28:54;;;;;;;14.10;10.10;;;1.20;99.90;;;;;;5073345;28;20044;-80
2023/04/05 04:31:20;;;;;;;15.30;10.52;;;1.20;99.90;;;;;;5076577;28;20044;-84
2023/04/05 04:33:48;;;;;;;12.98;11.00;;;1.10;99.90;;;;;;5075430;28;20054;-81
2023/04/05 04:36:14;;;;;;;11.90;9.63;;;1.10;99.90;;;;;;5075850;28;20055;-81
2023/04/05 04:38:41;;;;;;;14.05;10.82;;;1.50;99.90;;;;;;5076152;28;20040;-80
2023/04/05 04:41:10;;;;;;;15.52;9.93;;;1.00;99.90;;;;;;5076533;28;20056;-87
2023/04/05 04:43:41;;;;;;;13.18;9.93;;;1.00;99.90;;;;;;5077910;28;20049;-82
2023/04/05 04:46:13;;;;;;;13.57;10.25;;;1.00;99.90;;;;;;5092182;28;20044;-76
2023/04/05 04:48:41;;;;;;;12.90;10.38;;;1.10;99.90;;;;;;5100756;28;20036;-76
2023/04/05 04:51:07;;;;;;;14.30;10.77;;;1.00;99.90;;;;;;5097857;28;20044;-79
2023/04/05 04:53:32;;;;;;;14.70;11.55;;;0.90;99.90;;;;;;5092593;28;20074;-79
2023/04/05 04:55:58;;;;;;;18.23;10.73;;;0.90;99.90;;;;;;5080100;28;20470;-86
2023/04/05 04:58:24;;;;;;;16.17;11.25;;;0.80;99.90;;;;;;5077123;28;20044;-82
2023/04/05 05:00:51;;;;;;;14.50;11.30;;;1.30;99.90;;;;;;5076662;28;20044;-79
2023/04/05 05:03:18;;;;;;;14.20;10.93;;;0.80;99.90;;;;;;5076269;28;20048;-85
2023/04/05 05:05:45;;;;;;;16.10;11.15;;;0.70;99.90;;;;;;5091941;28;20457;-83
2023/04/05 05:08:12;;;;;;;15.52;12.15;;;0.90;99.90;;;;;;5076436;28;20117;-86
2023/04/05 05:10:38;;;;;;;17.20;10.73;;;1.50;99.90;;;;;;5075973;28;20053;-86
2023/04/05 05:13:04;;;;;;;14.75;11.88;;;0.60;99.90;;;;;;5075875;28;20048;-81
2023/04/05 05:15:30;;;;;;;17.13;13.43;;;2.00;99.90;;;;;;5075140;28;20361;-81
2023/04/05 05:17:57;;;;;;;17.35;12.75;;;0.60;99.90;;;;;;5091804;28;20052;-78
2023/04/05 05:20:24;;;;;;;14.77;12.68;;;1.20;99.90;;;;;;5075926;28;20135;-83
2023/04/05 05:22:50;;;;;;;17.88;12.88;;;0.80;99.90;;;;;;5057983;28;20050;-82
2023/04/05 05:25:15;;;;;;;15.75;12.18;;;1.40;99.90;;;;;;5075390;28;20052;-83
2023/04/05 05:27:41;;;;;;;15.52;12.27;;;0.80;99.90;;;;;;5075315;28;20055;-84
2023/04/05 05:30:08;;;;;;;15.20;12.05;;;0.70;99.90;;;;;;5076117;28;20105;-83
2023/04/05 05:32:33;;;;;;;17.63;12.88;;;0.60;99.90;;;;;;5074511;28;20446;-81
2023/04/05 05:34:59;;;;;;;16.98;13.02;;;0.60;99.90;;;;;;5092025;28;20051;-81
2023/04/05 05:37:30;;;;;;;16.58;12.75;;;0.50;99.90;;;;;;5075185;28;20485;-81
2023/04/05 05:39:56;;;;;;;16.73;13.05;;;0.50;99.90;;;;;;5074699;28;20052;-82
2023/04/05 05:42:21;;;;;;;15.63;12.35;;;0.60;99.90;;;;;;5074521;28;20058;-82
2023/04/05 05:44:47;;;;;;;16.00;12.43;;;0.80;99.90;;;;;;5075130;28;20128;-82
2023/04/05 05:47:13;;;;;;;16.58;13.10;;;0.70;99.90;;;;;;5074430;28;20115;-84
2023/04/05 05:49:39;;;;;;;17.73;13.25;;;0.80;99.90;;;;;;5074605;28;20448;-79
2023/04/05 05:52:04;;;;;;;18.40;12.63;;;0.90;99.90;;;;;;5075570;28;20058;-78
2023/04/05 05:54:30;;;;;;;15.27;12.65;;;1.00;99.90;;;;;;5075117;28;20488;-81
2023/04/05 05:56:56;;;;;;;15.68;12.65;;;1.80;99.90;;;;;;5074815;28;20102;-81
2023/04/05 05:59:22;;;;;;;18.38;13.70;;;1.20;99.90;;;;;;5075171;28;20128;-85
2023/04/05 06:01:50;;;;;;;17.00;12.77;;;1.20;99.90;;;;;;5090780;28;20052;-80
2023/04/05 06:04:16;;;;;;;16.40;13.77;;;1.20;99.90;;;;;;5075190;28;20129;-77
2023/04/05 06:06:42;;;;;;;15.18;13.40;;;1.30;99.90;;;;;;5075002;28;20115;-80
2023/04/05 06:09:09;;;;;;;15.35;12.10;;;1.30;99.90;;;;;;5084614;28;20047;-78
2023/04/05 06:11:35;;;;;;;15.57;12.95;;;1.40;99.90;;;;;;5097893;28;20033;-75
2023/04/05 06:14:01;;;;;;;18.52;13.30;;;1.40;99.90;;;;;;5093441;28;20033;-79
2023/04/05 06:16:26;;;;;;;15.95;13.32;;;1.40;99.90;;;;;;5092940;28;20051;-78
2023/04/05 06:18:54;;;;;;;17.13;12.35;;;1.50;99.90;;;;;;5089298;28;20128;-83
2023/04/05 06:21:20;;;;;;;22.77;14.15;;;1.50;99.90;;;;;;5090418;28;20055;-79
2023/04/05 06:23:46;;;;;;;19.13;14.35;;;1.50;99.90;;;;;;5074345;28;20139;-80
2023/04/05 06:26:21;;;;;;;18.98;13.18;;;1.60;99.90;;;;;;5074315;28;20044;-85
2023/04/05 06:28:48;;;;;;;16.23;13.45;;;1.70;99.90;;;;;;5073220;28;20458;-81
2023/04/05 06:31:15;;;;;;;16.67;13.73;;;1.70;99.90;;;;;;5074335;28;20056;-77
2023/04/05 06:33:41;;;;;;;17.83;13.60;;;1.70;99.90;;;;;;5073572;28;20060;-79
2023/04/05 06:36:07;;;;;;;17.02;13.95;;;1.80;99.90;;;;;;5073913;28;20110;-79
2023/04/05 06:38:33;;;;;;;18.05;13.80;;;1.80;99.90;;;;;;5073877;28;20393;-79
2023/04/05 06:40:59;;;;;;;16.10;14.07;;;1.90;99.90;;;;;;5073919;28;20048;-77
2023/04/05 06:43:25;;;;;;;15.23;12.75;;;1.90;99.90;;;;;;5089514;28;20075;-78
2023/04/05 06:45:50;;;;;;;15.15;13.18;;;2.00;99.90;;;;;;5073989;28;20070;-79
2023/04/05 06:48:16;;;;;;;18.83;14.70;;;2.40;99.90;;;;;;5073979;28;20071;-77
2023/04/05 06:50:42;;;;;;;17.35;13.38;;;2.10;99.90;;;;;;5073295;28;20048;-79
2023/04/05 06:53:07;;;;;;;15.00;13.48;;;2.40;99.90;;;;;;5073504;28;20167;-77
2023/04/05 06:55:34;;;;;;;14.27;12.75;;;2.30;99.90;;;;;;5089800;28;20507;-80
2023/04/05 06:57:59;;;;;;;19.52;13.18;;;2.50;99.90;;;;;;5073891;28;20090;-79
2023/04/05 07:00:25;;;;;;;14.93;11.57;;;3.20;99.90;;;;;;5089749;28;20418;-78
2023/04/05 07:02:51;;;;;;;14.60;11.85;;;2.80;99.90;;;;;;5089295;28;20076;-77
2023/04/05 07:05:16;;;;;;;15.85;11.60;;;3.30;99.90;;;;;;5073418;28;20479;-78
2023/04/05 07:07:44;;;;;;;15.52;11.98;;;2.70;99.90;;;;;;5073604;28;20040;-78
2023/04/05 07:10:10;;;;;;;13.98;11.77;;;2.90;99.90;;;;;;5073265;28;20111;-79
2023/04/05 07:12:36;;;;;;;16.70;12.20;;;3.00;99.90;;;;;;5073312;28;20049;-78
2023/04/05 07:15:02;;;;;;;14.10;11.70;;;3.70;99.90;;;;;;5072873;28;20064;-79
2023/04/05 07:17:28;;;;;;;13.27;11.57;;;3.10;99.90;;;;;;5072998;28;20044;-79
2023/04/05 07:19:54;;;;;;;15.38;12.93;;;3.20;99.90;;;;;;5073600;28;20048;-78
2023/04/05 07:22:20;;;;;;;12.68;11.38;;;3.40;99.90;;;;;;5073250;28;20143;-78
2023/04/05 07:24:45;;;;;;;16.38;12.18;;;3.50;99.90;;;;;;5073034;28;20044;-78
2023/04/05 07:27:11;;;;;;;12.45;11.30;;;3.80;99.90;;;;;;5073534;28;20037;-78
2023/04/05 07:29:39;;;;;;;15.02;11.23;;;4.50;99.90;;;;;;5073390;28;20446;-79
2023/04/05 07:32:08;;;;;;;13.68;10.10;;;6.00;99.90;;;;;;5071806;28;20124;-77
2023/04/05 07:34:35;;;;;;;16.65;10.57;;;7.40;99.90;;;;;;5072541;28;20048;-79
2023/04/05 07:37:05;;;;;;;9.80;8.80;;;8.80;99.90;;;;;;5072900;28;20121;-77
2023/04/05 07:39:31;;;;;;;10.23;8.60;;;9.90;99.90;;;;;;5072525;28;20044;-79
2023/04/05 07:41:57;;;;;;;9.02;8.13;;;10.30;99.90;;;;;;5071487;28;20060;-79
2023/04/05 07:44:24;;;;;;;10.35;8.10;;;10.60;99.90;;;;;;5088920;28;20040;-79
2023/04/05 07:46:49;;;;;;;10.82;8.23;;;10.90;99.90;;;;;;5072795;28;20118;-78
2023/04/05 07:49:15;;;;;;;8.32;7.53;;;11.50;99.90;;;;;;5073038;28;20504;-79
2023/04/05 07:51:42;;;;;;;11.85;8.45;;;11.80;99.90;;;;;;5071290;28;20087;-80
2023/04/05 07:54:08;;;;;;;9.48;7.05;;;12.60;99.90;;;;;;5072303;28;20064;-80
2023/04/05 07:56:36;;;;;;;9.02;8.07;;;13.10;99.90;;;;;;5072637;28;20096;-78
2023/04/05 07:59:02;;;;;;;8.70;7.80;;;13.30;99.90;;;;;;5071386;28;20541;-79
2023/04/05 08:01:28;;;;;;;9.10;7.38;;;13.90;99.90;;;;;;5073169;28;20091;-79
2023/04/05 08:03:56;;;;;;;11.60;8.25;;;13.90;99.30;;;;;;5073370;28;20048;-79
2023/04/05 08:06:22;;;;;;;9.93;8.73;;;13.60;96.70;;;;;;5073441;28;20055;-78
2023/04/05 08:08:48;;;;;;;8.07;7.25;;;13.80;97.90;;;;;;5072886;28;20055;-79
2023/04/05 08:11:13;;;;;;;8.35;6.78;;;13.50;96.00;;;;;;5073137;28;20048;-78
2023/04/05 08:13:40;;;;;;;9.80;7.47;;;14.00;96.20;;;;;;5072688;28;20494;-78
2023/04/05 08:16:10;;;;;;;8.57;7.75;;;14.50;96.30;;;;;;5072749;28;20053;-78
2023/04/05 08:18:36;;;;;;;11.48;7.40;;;14.80;92.30;;;;;;5073151;28;20127;-80
2023/04/05 08:21:02;;;;;;;8.45;7.63;;;14.80;94.00;;;;;;5072524;28;20052;-78
2023/04/05 08:23:28;;;;;;;8.52;6.68;;;15.20;94.20;;;;;;5072472;28;20059;-80
2023/04/05 08:25:54;;;;;;;7.03;6.30;;;15.20;93.10;;;;;;5071471;28;20053;-79
2023/04/05 08:28:20;;;;;;;9.48;7.28;;;15.00;92.90;;;;;;5072522;28;20036;-80
2023/04/05 08:30:46;;;;;;;9.07;8.18;;;15.10;92.80;;;;;;5072549;28;20045;-79
2023/04/05 08:33:12;;;;;;;9.88;7.50;;;15.10;92.30;;;;;;5072328;28;20186;-79
2023/04/05 08:35:38;;;;;;;7.78;6.97;;;15.30;92.90;;;;;;5072642;28;20049;-79
2023/04/05 08:38:06;;;;;;;7.20;6.45;;;15.30;91.70;;;;;;5072170;28;20052;-78
2023/04/05 08:40:43;;;;;;;9.32;6.30;;;15.00;90.80;;;;;;5070918;28;20063;-79
2023/04/05 08:43:24;;;;;;;8.63;6.40;;;15.50;90.60;;;;;;5072393;28;20060;-78
2023/04/05 08:45:52;;;;;;;8.73;7.32;;;15.70;87.90;;;;;;5072183;28;20063;-78
2023/04/05 08:48:18;;;;;;;12.05;6.80;;;16.20;90.50;;;;;;5072283;28;20123;-90
2023/04/05 08:50:54;;;;;;;8.00;6.30;;;15.40;85.50;;;;;;5071951;28;20105;-87
2023/04/05 08:53:20;;;;;;;9.02;6.25;;;15.10;86.70;;;;;;5071899;28;20044;-88
2023/04/05 08:55:52;;;;;;;8.38;7.10;;;15.40;88.50;;;;;;5072148;28;20095;-80
2023/04/05 08:58:21;;;;;;;7.22;5.53;;;16.00;87.70;;;;;;5072022;28;20203;-80
2023/04/05 09:00:47;;;;;;;7.30;6.57;;;16.40;86.00;;;;;;5072522;28;20063;-80
2023/04/05 09:03:16;;;;;;;10.27;6.50;;;16.80;85.30;;;;;;5071652;28;20048;-78
2023/04/05 09:05:47;;;;;;;6.32;5.38;;;17.20;84.00;;;;;;5072207;28;20055;-80
2023/04/05 09:08:13;;;;;;;10.20;6.25;;;17.50;80.30;;;;;;5087144;28;20047;-80
2023/04/05 09:10:39;;;;;;;7.30;6.03;;;17.70;81.60;;;;;;5072569;28;20056;-81
2023/04/05 09:13:07;;;;;;;8.50;5.75;;;17.30;79.50;;;;;;5071550;28;20040;-80
2023/04/05 09:15:36;;;;;;;6.82;5.22;;;16.10;74.90;;;;;;5074354;28;20080;-82
2023/04/05 09:18:02;;;;;;;6.63;5.93;;;15.90;80.40;;;;;;5075480;28;20105;-80
2023/04/05 09:20:28;;;;;;;7.03;5.72;;;15.50;79.10;;;;;;5075778;28;20087;-79
2023/04/05 09:22:56;;;;;;;7.55;5.28;;;15.80;79.90;;;;;;5075834;28;20055;-74
2023/04/05 09:25:31;;;;;;;7.03;6.25;;;16.20;78.50;;;;;;5075370;28;20094;-73
2023/04/05 09:27:57;;;;;;;6.20;5.57;;;16.70;77.00;;;;;;5075596;28;20100;-80
2023/04/05 09:30:24;;;;;;;5.82;5.20;;;16.60;78.00;;;;;;5075261;28;20101;-81
2023/04/05 09:32:54;;;;;;;5.65;5.03;;;15.60;76.50;;;;;;5074918;28;20107;-80
2023/04/05 09:35:24;;;;;;;6.22;5.38;;;15.20;73.30;;;;;;5075267;28;20094;-81
2023/04/05 09:37:55;;;;;;;6.30;5.68;;;15.90;76.90;;;;;;5075493;28;20048;-81
2023/04/05 09:40:21;;;;;;;5.60;5.13;;;16.30;76.70;;;;;;5074219;28;20056;-81
2023/04/05 09:42:48;;;;;;;5.50;3.67;;;16.30;75.50;;;;;;5074350;28;20057;-81
2023/04/05 09:45:15;;;;;;;7.47;4.25;;;16.70;75.30;;;;;;5090827;28;20040;-79
2023/04/05 09:47:41;;;;;;;4.90;4.05;;;17.30;73.90;;;;;;5090558;28;20044;-78
2023/04/05 09:50:19;;;;;;;5.63;4.00;;;17.60;73.10;;;;;;5074798;28;20049;-81
2023/04/05 09:52:45;;;;;;;5.90;4.13;;;17.60;68.70;;;;;;5075210;28;20083;-81
2023/04/05 09:55:11;;;;;;;6.68;4.55;;;17.30;66.10;;;;;;5074813;28;20131;-80
2023/04/05 09:57:38;;;;;;;5.45;4.72;;;16.40;68.80;;;;;;5074740;28;20040;-82
2023/04/05 10:00:15;;;;;;;6.15;3.80;;;16.50;70.50;;;;;;5074071;28;20128;-79
2023/04/05 10:02:41;;;;;;;5.15;3.90;;;16.80;69.30;;;;;;5089498;28;20044;-82
2023/04/05 10:05:12;;;;;;;3.90;3.35;;;16.70;68.20;;;;;;5074275;28;20349;-80
2023/04/05 10:07:46;;;;;;;6.28;3.25;;;17.20;68.40;;;;;;5074526;28;20511;-80
2023/04/05 10:10:14;;;;;;;5.65;3.72;;;17.60;62.10;;;;;;5074511;28;20461;-82
2023/04/05 10:12:41;;;;;;;8.27;4.07;;;18.10;67.40;;;;;;5074491;28;20049;-79
2023/04/05 10:15:08;;;;;;;5.63;3.80;;;18.50;67.10;;;;;;5074165;28;20371;-80
2023/04/05 10:17:41;;;;;;;6.25;4.00;;;18.60;66.60;;;;;;5074497;28;20053;-79
2023/04/05 10:20:14;;;;;;;6.75;3.42;;;18.90;65.10;;;;;;5074885;28;20396;-81
2023/04/05 10:22:49;;;;;;;;;;;19.10;64.50;;;;;;5074367;28;20459;-79
2023/04/05 10:25:23;;;;;;;4.13;3.70;;;19.10;59.90;;;;;;5074285;28;19966;-77
2023/04/05 10:27:54;;;;;;;4.63;3.97;;;19.70;65.10;;;;;;5073201;28;20454;-80
2023/04/05 10:30:24;;;;;;;4.63;4.20;;;19.20;60.30;;;;;;5074132;28;20041;-80
2023/04/05 10:32:49;;;;;;;6.03;4.18;;;18.00;59.80;;;;;;5073803;28;20542;-79
2023/04/05 10:35:19;;;;;;;5.13;4.57;;;18.00;61.30;;;;;;5073993;28;20086;-78
2023/04/05 10:37:54;;;;;;;4.63;4.22;;;18.00;60.20;;;;;;5074100;28;20450;-79
2023/04/05 10:40:21;;;;;;;5.38;4.88;;;17.90;58.70;;;;;;5073632;28;20056;-81
2023/04/05 10:42:47;;;;;;;6.22;4.65;;;17.40;61.20;;;;;;5074484;28;20048;-80
2023/04/05 10:45:18;;;;;;;7.30;4.70;;;17.60;62.00;;;;;;5073722;28;20102;-82
2023/04/05 10:47:58;;;;;;;5.18;4.07;;;17.90;61.00;;;;;;5056342;28;20048;-79
2023/04/05 10:50:24;;;;;;;5.20;4.28;;;17.90;59.40;;;;;;5073858;28;20040;-82
2023/04/05 10:52:52;;;;;;;5.95;4.60;;;17.60;59.50;;;;;;5074099;28;20134;-77
2023/04/05 10:55:19;;;;;;;7.63;4.50;;;17.00;59.00;;;;;;5072973;28;20074;-81
2023/04/05 10:57:46;;;;;;;7.45;4.70;;;15.30;60.20;;;;;;5075073;28;20037;-78
2023/04/05 11:00:14;;;;;;;6.05;4.88;;;14.10;61.50;;;;;;5074280;28;20044;-80
2023/04/05 11:02:40;;;;;;;7.68;5.05;;;13.10;63.70;;;;;;5074170;28;20084;-79
2023/04/05 11:05:26;;;;;;;5.22;4.72;;;12.50;64.70;;;;;;5073619;28;20044;-79
2023/04/05 11:07:55;;;;;;;7.28;4.85;;;12.20;65.20;;;;;;5073609;28;20041;-80
2023/04/05 11:10:22;;;;;;;16.05;5.22;;;12.00;65.60;;;;;;5073953;28;20489;-80
2023/04/05 11:12:48;;;;;;;7.95;5.18;;;12.10;65.00;;;;;;5073880;28;20056;-80
2023/04/05 11:15:32;;;;;;;5.38;4.35;;;11.50;65.00;;;;;;5073555;28;20044;-77
2023/04/05 11:18:15;;;;;;;6.32;4.43;;;11.40;65.80;;;;;;5073030;28;20123;-80
2023/04/05 11:20:50;;;;;;;5.53;4.60;;;11.20;65.90;;;;;;5073379;28;20093;-79
2023/04/05 11:23:18;;;;;;;5.70;4.55;;;11.50;66.90;;;;;;5072328;28;20100;-81
2023/04/05 11:25:53;;;;;;;6.15;4.68;;;11.60;66.30;;;;;;5072611;28;20056;-80
2023/04/05 11:28:38;;;;;;;4.82;4.20;;;11.60;66.30;;;;;;5073129;28;20515;-79
2023/04/05 11:31:21;;;;;;;7.18;4.60;;;11.70;66.40;;;;;;5072688;28;20052;-81
2023/04/05 11:33:47;;;;;;;5.10;4.35;;;11.60;65.20;;;;;;5088559;28;20059;-80
2023/04/05 11:36:14;;;;;;;5.90;4.40;;;11.80;67.30;;;;;;5073145;28;20048;-81
2023/04/05 11:38:43;;;;;;;5.00;3.88;;;12.00;66.90;;;;;;5072529;28;20465;-82
2023/04/05 11:41:16;;;;;;;7.30;4.93;;;12.00;66.50;;;;;;5072978;28;20057;-80
2023/04/05 11:43:50;;;;;;;7.32;4.40;;;11.80;64.00;;;;;;5072949;28;20052;-82
2023/04/05 11:46:15;;;;;;;7.13;4.55;;;11.80;65.40;;;;;;5072198;28;20048;-79
2023/04/05 11:48:41;;;;;;;6.65;4.50;;;11.70;65.90;;;;;;5088864;28;20518;-80
2023/04/05 11:51:09;;;;;;;5.40;4.20;;;11.30;65.60;;;;;;5072932;28;20059;-80
2023/04/05 11:53:36;;;;;;;7.57;4.20;;;11.30;65.80;;;;;;5072809;28;20119;-78
2023/04/05 11:56:08;;;;;;;4.85;4.35;;;11.50;65.90;;;;;;5071336;28;20052;-81
2023/04/05 11:58:35;;;;;;;5.28;4.47;;;11.60;64.70;;;;;;5073164;28;20044;-78
2023/04/05 12:01:03;;;;;;;4.88;4.10;;;11.60;64.70;;;;;;5072464;28;20049;-80
2023/04/05 12:03:29;;;;;;;5.25;4.75;;;11.80;64.40;;;;;;5072608;28;20083;-80
2023/04/05 12:05:56;;;;;;;7.68;4.53;;;11.70;63.70;;;;;;5073123;28;20507;-80
2023/04/05 12:08:23;;;;;;;4.38;3.92;;;11.50;64.10;;;;;;5072803;28;20084;-78
2023/04/05 12:10:54;;;;;;;5.95;4.35;;;11.70;65.10;;;;;;5072434;28;20049;-80
2023/04/05 12:13:30;;;;;;;7.32;4.85;;;11.90;64.40;;;;;;5071518;28;20121;-80
2023/04/05 12:15:58;;;;;;;6.50;4.47;;;12.00;64.10;;;;;;5072937;28;20127;-81
2023/04/05 12:18:25;;;;;;;4.78;3.88;;;11.90;64.10;;;;;;5072726;28;20048;-82
2023/04/05 12:20:52;;;;;;;4.50;3.95;;;12.00;64.20;;;;;;5072392;28;20048;-81
2023/04/05 12:23:20;;;;;;;7.07;4.57;;;12.10;63.80;;;;;;5072418;28;20055;-80
2023/04/05 12:25:49;;;;;;;6.00;4.32;;;11.90;62.10;;;;;;5072349;28;20049;-80
2023/04/05 12:28:15;;;;;;;5.47;4.53;;;12.10;64.80;;;;;;5072368;28;20085;-79
2023/04/05 12:30:52;;;;;;;5.65;4.47;;;12.20;64.60;;;;;;5072712;28;20083;-82
2023/04/05 12:33:32;;;;;;;6.85;4.43;;;12.20;64.50;;;;;;5072454;28;20505;-82
2023/04/05 12:36:03;;;;;;;4.45;3.78;;;12.10;64.70;;;;;;5072375;28;20408;-82
2023/04/05 12:38:29;;;;;;;6.63;4.22;;;12.10;64.80;;;;;;5072303;28;20048;-80
2023/04/05 12:41:02;;;;;;;7.13;4.68;;;12.20;64.80;;;;;;5071153;28;20115;-79
2023/04/05 12:43:41;;;;;;;4.68;4.10;;;12.30;63.70;;;;;;5072133;28;20099;-82
2023/04/05 12:46:15;;;;;;;8.40;4.35;;;12.30;63.60;;;;;;5071396;28;20450;-79
2023/04/05 12:48:41;;;;;;;6.32;4.07;;;12.30;64.80;;;;;;5072576;28;20393;-81
2023/04/05 12:51:15;;;;;;;6.13;4.40;;;12.50;64.70;;;;;;5075635;28;20048;-81